Time;durP1;ratioP1;P1;durP2;ratioP2;P2;SDS_P1;SDS_P2;PMS_P1;PMS_P2;Temp;Humidity;BMP_temperature;BMP_pressure;BME280_temperature;BME280_humidity;BME280_pressure;Samples;Min_cycle;Max_cycle;Signal;HPM_P1;HPM_P2
2022/02/13 00:00:10;;;;;;;;;;;;;;;;;;348379;28;1925;-75
2022/02/13 00:00:20;;;;;;;;;;;;;;;;;;348448;28;888;-76
2022/02/13 00:00:30;;;;;;;;;;;;;;;;;;348486;28;956;-75
2022/02/13 00:00:40;;;;;;;;;;;;;;;;;;348487;28;917;-75
2022/02/13 00:00:51;;;;;;;;;;;;;;;;;;348450;28;1910;-75
2022/02/13 00:01:02;;;;;;;;;;;;;;;;;;348470;28;925;-75
2022/02/13 00:01:13;;;;;;;;;;;;;;;;;;348499;28;943;-75
2022/02/13 00:01:24;;;;;;;;;;;;;;;;;;348600;28;825;-75
2022/02/13 00:01:35;;;;;;;;;;;;;;;;;;348651;28;951;-75
2022/02/13 00:01:45;;;;;;;;;;;;;;;;;;348545;28;925;-75
2022/02/13 00:01:56;;;;;;;;;;;;;;;;;;348628;28;778;-75
2022/02/13 00:02:07;;;;;;;;;;;;;;;;;;349025;28;1704;-75
2022/02/13 00:02:18;;;;;;;;;;;;;;;;;;348574;28;976;-75
2022/02/13 00:02:28;;;;;;;;;;;;;;;;;;348510;28;1019;-75
2022/02/13 00:02:39;;;;;;;;;;;;;;;;;;348597;28;921;-75
2022/02/13 00:02:49;;;;;;;;;;;;;;;;;;348599;28;920;-75
2022/02/13 00:02:59;;;;;;;;;;;;;;;;;;348598;28;964;-75
2022/02/13 00:03:09;;;;;;;;;;;;;;;;;;348515;28;1171;-75
2022/02/13 00:03:20;;;;;;;;;;;;;;;;;;348542;28;897;-75
2022/02/13 00:03:30;;;;;;;;;;;;;;;;;;348547;28;1000;-75
2022/02/13 00:03:40;;;;;;;;;;;;;;;;;;348664;28;1641;-76
2022/02/13 00:03:51;;;;;;;;;;;;;;;;;;348869;28;1523;-75
2022/02/13 00:04:01;;;;;;;;;;;;;;;;;;349753;28;1780;-75
2022/02/13 00:04:14;;;;;;;;;;;;;;;;;;349944;28;853;-76
2022/02/13 00:04:24;;;;;;;;;;;;;;;;;;349969;28;948;-75
2022/02/13 00:04:35;;;;;;;;;;;;;;;;;;349931;28;992;-75
2022/02/13 00:04:45;;;;;;;;;;;;;;;;;;349995;28;976;-75
2022/02/13 00:04:55;;;;;;;;;;;;;;;;;;349958;28;849;-75
2022/02/13 00:05:06;;;;;;;;;;;;;;;;;;349975;28;916;-76
2022/02/13 00:05:17;;;;;;;;;;;;;;;;;;349914;28;921;-75
2022/02/13 00:05:28;;;;;;;;;;;;;;;;;;349944;28;802;-75
2022/02/13 00:05:38;;;;;;;;;;;;;;;;;;349986;28;865;-75
2022/02/13 00:05:49;;;;;;;;;;;;;;;;;;349970;28;964;-75
2022/02/13 00:05:59;;;;;;;;;;;;;;;;;;349932;28;810;-75
2022/02/13 00:06:10;;;;;;;;;;;;;;;;;;349977;28;822;-76
2022/02/13 00:06:20;;;;;;;;;;;;;;;;;;349935;28;774;-75
2022/02/13 00:06:30;;;;;;;;;;;;;;;;;;349984;28;929;-75
2022/02/13 00:06:40;;;;;;;;;;;;;;;;;;349942;28;987;-75
2022/02/13 00:06:51;;;;;;;;;;;;;;;;;;349995;28;798;-75
2022/02/13 00:07:01;;;;;;;;;;;;;;;;;;349910;28;1143;-75
2022/02/13 00:07:11;;;;;;;;;;;;;;;;;;349982;28;909;-75
2022/02/13 00:07:21;;;;;;;;;;;;;;;;;;349714;28;1508;-75
2022/02/13 00:07:35;;;;;;;;;;;;;;;;;;349379;28;1667;-76
2022/02/13 00:07:45;;;;;;;;;;;;;;;;;;349975;28;948;-75
2022/02/13 00:07:55;;;;;;;;;;;;;;;;;;349961;28;984;-75
2022/02/13 00:08:06;;;;;;;;;;;;;;;;;;350087;28;1731;-75
2022/02/13 00:08:17;;;;;;;;;;;;;;;;;;349991;28;1554;-75
2022/02/13 00:08:27;;;;;;;;;;;;;;;;;;348586;28;917;-75
2022/02/13 00:08:37;;;;;;;;;;;;;;;;;;348516;28;1012;-75
2022/02/13 00:08:47;;;;;;;;;;;;;;;;;;348582;28;917;-75
2022/02/13 00:08:58;;;;;;;;;;;;;;;;;;348601;28;912;-75
2022/02/13 00:09:09;;;;;;;;;;;;;;;;;;348512;28;1302;-75
2022/02/13 00:09:19;;;;;;;;;;;;;;;;;;348528;28;787;-75
2022/02/13 00:09:31;;;;;;;;;;;;;;;;;;348600;28;933;-75
2022/02/13 00:09:41;;;;;;;;;;;;;;;;;;348505;28;941;-76
2022/02/13 00:09:52;;;;;;;;;;;;;;;;;;348536;28;994;-75
2022/02/13 00:10:05;;;;;;;;;;;;;;;;;;348592;28;841;-75
2022/02/13 00:10:15;;;;;;;;;;;;;;;;;;348608;28;900;-75
2022/02/13 00:10:26;;;;;;;;;;;;;;;;;;348522;28;943;-75
2022/02/13 00:10:36;;;;;;;;;;;;;;;;;;348570;28;968;-75
2022/02/13 00:10:47;;;;;;;;;;;;;;;;;;348610;28;977;-76
2022/02/13 00:10:57;;;;;;;;;;;;;;;;;;348584;28;969;-76
2022/02/13 00:11:07;;;;;;;;;;;;;;;;;;348622;28;865;-76
2022/02/13 00:11:17;;;;;;;;;;;;;;;;;;348499;28;1028;-75
2022/02/13 00:11:28;;;;;;;;;;;;;;;;;;348527;28;1083;-75
2022/02/13 00:11:38;;;;;;;;;;;;;;;;;;348544;28;913;-75
2022/02/13 00:11:48;;;;;;;;;;;;;;;;;;348573;28;893;-75
2022/02/13 00:12:00;;;;;;;;;;;;;;;;;;348564;28;965;-75
2022/02/13 00:12:10;;;;;;;;;;;;;;;;;;348513;28;1032;-75
2022/02/13 00:12:20;;;;;;;;;;;;;;;;;;348583;28;929;-75
2022/02/13 00:12:31;;;;;;;;;;;;;;;;;;348544;28;1027;-76
2022/02/13 00:12:41;;;;;;;;;;;;;;;;;;348609;28;913;-75
2022/02/13 00:12:51;;;;;;;;;;;;;;;;;;348610;28;996;-75
2022/02/13 00:13:01;;;;;;;;;;;;;;;;;;348569;28;901;-76
2022/02/13 00:13:12;;;;;;;;;;;;;;;;;;348596;28;853;-76
2022/02/13 00:13:22;;;;;;;;;;;;;;;;;;348551;28;941;-75
2022/02/13 00:13:32;;;;;;;;;;;;;;;;;;348591;28;892;-75
2022/02/13 00:13:42;;;;;;;;;;;;;;;;;;348573;28;735;-75
2022/02/13 00:13:53;;;;;;;;;;;;;;;;;;348502;28;759;-75
2022/02/13 00:14:04;;;;;;;;;;;;;;;;;;348459;28;1532;-75
2022/02/13 00:14:15;;;;;;;;;;;;;;;;;;349777;28;1489;-76
2022/02/13 00:14:25;;;;;;;;;;;;;;;;;;349924;28;920;-75
2022/02/13 00:14:35;;;;;;;;;;;;;;;;;;349950;28;933;-75
2022/02/13 00:14:46;;;;;;;;;;;;;;;;;;349941;28;834;-75
2022/02/13 00:14:56;;;;;;;;;;;;;;;;;;349973;28;956;-76
2022/02/13 00:15:07;;;;;;;;;;;;;;;;;;350001;28;861;-75
2022/02/13 00:15:17;;;;;;;;;;;;;;;;;;349975;28;940;-75
2022/02/13 00:15:27;;;;;;;;;;;;;;;;;;349975;28;912;-75
2022/02/13 00:15:37;;;;;;;;;;;;;;;;;;349980;28;940;-75
2022/02/13 00:15:48;;;;;;;;;;;;;;;;;;349942;28;929;-75
2022/02/13 00:15:58;;;;;;;;;;;;;;;;;;349953;28;951;-75
2022/02/13 00:16:08;;;;;;;;;;;;;;;;;;349953;28;905;-75
2022/02/13 00:16:18;;;;;;;;;;;;;;;;;;349911;28;918;-75
2022/02/13 00:16:29;;;;;;;;;;;;;;;;;;349932;28;881;-75
2022/02/13 00:16:40;;;;;;;;;;;;;;;;;;349916;28;1027;-75
2022/02/13 00:16:50;;;;;;;;;;;;;;;;;;349985;28;971;-75
2022/02/13 00:17:00;;;;;;;;;;;;;;;;;;349964;28;984;-75
2022/02/13 00:17:10;;;;;;;;;;;;;;;;;;349969;28;857;-75
2022/02/13 00:17:21;;;;;;;;;;;;;;;;;;349917;28;1181;-76
2022/02/13 00:17:32;;;;;;;;;;;;;;;;;;349928;28;1023;-75
2022/02/13 00:17:42;;;;;;;;;;;;;;;;;;349926;28;1019;-75
2022/02/13 00:17:52;;;;;;;;;;;;;;;;;;349950;28;900;-75
2022/02/13 00:18:03;;;;;;;;;;;;;;;;;;349945;28;909;-75
2022/02/13 00:18:13;;;;;;;;;;;;;;;;;;349944;28;913;-75
2022/02/13 00:18:24;;;;;;;;;;;;;;;;;;349970;28;867;-76
2022/02/13 00:18:34;;;;;;;;;;;;;;;;;;349917;28;912;-75
2022/02/13 00:18:45;;;;;;;;;;;;;;;;;;349945;28;1011;-75
2022/02/13 00:18:55;;;;;;;;;;;;;;;;;;349977;28;908;-76
2022/02/13 00:19:07;;;;;;;;;;;;;;;;;;349901;28;984;-75
2022/02/13 00:19:17;;;;;;;;;;;;;;;;;;350007;28;865;-75
2022/02/13 00:19:27;;;;;;;;;;;;;;;;;;349953;28;973;-75
2022/02/13 00:19:37;;;;;;;;;;;;;;;;;;349945;28;848;-75
2022/02/13 00:19:48;;;;;;;;;;;;;;;;;;349938;28;976;-75
2022/02/13 00:19:59;;;;;;;;;;;;;;;;;;349943;28;801;-75
2022/02/13 00:20:09;;;;;;;;;;;;;;;;;;349955;28;987;-75
2022/02/13 00:20:19;;;;;;;;;;;;;;;;;;349902;28;936;-75
2022/02/13 00:20:30;;;;;;;;;;;;;;;;;;349914;28;899;-75
2022/02/13 00:20:40;;;;;;;;;;;;;;;;;;349988;28;945;-76
2022/02/13 00:20:50;;;;;;;;;;;;;;;;;;349897;28;1910;-75
2022/02/13 00:21:00;;;;;;;;;;;;;;;;;;349950;28;960;-75
2022/02/13 00:21:11;;;;;;;;;;;;;;;;;;349914;28;901;-75
2022/02/13 00:21:21;;;;;;;;;;;;;;;;;;349962;28;980;-75
2022/02/13 00:21:31;;;;;;;;;;;;;;;;;;349954;28;813;-75
2022/02/13 00:21:41;;;;;;;;;;;;;;;;;;349918;28;893;-75
2022/02/13 00:21:52;;;;;;;;;;;;;;;;;;349900;28;1023;-75
2022/02/13 00:22:02;;;;;;;;;;;;;;;;;;349906;28;929;-75
2022/02/13 00:22:13;;;;;;;;;;;;;;;;;;349604;28;1632;-76
2022/02/13 00:22:23;;;;;;;;;;;;;;;;;;348878;28;1713;-74
2022/02/13 00:22:34;;;;;;;;;;;;;;;;;;349960;28;833;-76
2022/02/13 00:22:44;;;;;;;;;;;;;;;;;;349968;28;802;-75
2022/02/13 00:22:55;;;;;;;;;;;;;;;;;;349967;28;786;-75
2022/02/13 00:23:05;;;;;;;;;;;;;;;;;;349999;28;951;-75
2022/02/13 00:23:15;;;;;;;;;;;;;;;;;;349919;28;1083;-75
2022/02/13 00:23:26;;;;;;;;;;;;;;;;;;350010;28;1592;-75
2022/02/13 00:23:36;;;;;;;;;;;;;;;;;;350758;28;1507;-75
2022/02/13 00:23:46;;;;;;;;;;;;;;;;;;351291;28;924;-75
2022/02/13 00:23:57;;;;;;;;;;;;;;;;;;351268;28;1011;-75
2022/02/13 00:24:07;;;;;;;;;;;;;;;;;;351324;28;936;-75
2022/02/13 00:24:17;;;;;;;;;;;;;;;;;;351307;28;853;-75
2022/02/13 00:24:28;;;;;;;;;;;;;;;;;;351366;28;909;-75
2022/02/13 00:24:38;;;;;;;;;;;;;;;;;;351349;28;830;-75
2022/02/13 00:24:49;;;;;;;;;;;;;;;;;;351309;28;877;-74
2022/02/13 00:25:00;;;;;;;;;;;;;;;;;;351307;28;916;-75
2022/02/13 00:25:10;;;;;;;;;;;;;;;;;;351371;28;837;-75
2022/02/13 00:25:20;;;;;;;;;;;;;;;;;;351308;28;976;-75
2022/02/13 00:25:31;;;;;;;;;;;;;;;;;;351359;28;936;-75
2022/02/13 00:25:43;;;;;;;;;;;;;;;;;;351385;28;976;-75
2022/02/13 00:25:53;;;;;;;;;;;;;;;;;;351327;28;1043;-75
2022/02/13 00:26:03;;;;;;;;;;;;;;;;;;351357;28;900;-75
2022/02/13 00:26:14;;;;;;;;;;;;;;;;;;351286;28;865;-75
2022/02/13 00:26:24;;;;;;;;;;;;;;;;;;351364;28;830;-75
2022/02/13 00:26:36;;;;;;;;;;;;;;;;;;351308;28;780;-75
2022/02/13 00:26:46;;;;;;;;;;;;;;;;;;351324;28;1023;-75
2022/02/13 00:26:56;;;;;;;;;;;;;;;;;;351299;28;952;-74
2022/02/13 00:27:06;;;;;;;;;;;;;;;;;;351343;28;991;-75
2022/02/13 00:27:17;;;;;;;;;;;;;;;;;;349682;28;1667;-75
2022/02/13 00:27:27;;;;;;;;;;;;;;;;;;348495;28;1745;-75
2022/02/13 00:27:37;;;;;;;;;;;;;;;;;;348564;28;921;-75
2022/02/13 00:27:48;;;;;;;;;;;;;;;;;;348573;28;937;-75
2022/02/13 00:27:58;;;;;;;;;;;;;;;;;;348576;28;976;-75
2022/02/13 00:28:11;;;;;;;;;;;;;;;;;;348588;28;823;-75
2022/02/13 00:28:21;;;;;;;;;;;;;;;;;;348502;28;980;-75
2022/02/13 00:28:32;;;;;;;;;;;;;;;;;;348600;28;791;-75
2022/02/13 00:28:43;;;;;;;;;;;;;;;;;;348517;28;972;-75
2022/02/13 00:28:53;;;;;;;;;;;;;;;;;;348602;28;1757;-75
2022/02/13 00:29:03;;;;;;;;;;;;;;;;;;348495;28;1239;-75
2022/02/13 00:29:13;;;;;;;;;;;;;;;;;;348579;28;924;-75
2022/02/13 00:29:24;;;;;;;;;;;;;;;;;;348573;28;837;-75
2022/02/13 00:29:34;;;;;;;;;;;;;;;;;;348537;28;798;-75
2022/02/13 00:29:44;;;;;;;;;;;;;;;;;;348581;28;925;-75
2022/02/13 00:29:54;;;;;;;;;;;;;;;;;;348597;28;857;-75
2022/02/13 00:30:07;;;;;;;;;;;;;;;;;;348463;28;1680;-75
2022/02/13 00:30:17;;;;;;;;;;;;;;;;;;350911;28;1534;-75
2022/02/13 00:30:28;;;;;;;;;;;;;;;;;;348534;28;865;-75
2022/02/13 00:30:38;;;;;;;;;;;;;;;;;;348582;28;1007;-75
2022/02/13 00:30:48;;;;;;;;;;;;;;;;;;348513;28;763;-75
2022/02/13 00:30:59;;;;;;;;;;;;;;;;;;348597;28;909;-75
2022/02/13 00:31:09;;;;;;;;;;;;;;;;;;348534;28;1012;-75
2022/02/13 00:31:20;;;;;;;;;;;;;;;;;;348550;28;960;-75
2022/02/13 00:31:30;;;;;;;;;;;;;;;;;;348638;28;838;-75
2022/02/13 00:31:40;;;;;;;;;;;;;;;;;;348574;28;779;-75
2022/02/13 00:31:51;;;;;;;;;;;;;;;;;;348559;28;968;-75
2022/02/13 00:32:01;;;;;;;;;;;;;;;;;;348590;28;846;-75
2022/02/13 00:32:11;;;;;;;;;;;;;;;;;;348516;28;992;-75
2022/02/13 00:32:23;;;;;;;;;;;;;;;;;;348589;28;921;-76
2022/02/13 00:32:34;;;;;;;;;;;;;;;;;;348518;28;865;-75
2022/02/13 00:32:45;;;;;;;;;;;;;;;;;;348580;28;901;-75
2022/02/13 00:32:56;;;;;;;;;;;;;;;;;;348554;28;933;-75
2022/02/13 00:33:06;;;;;;;;;;;;;;;;;;348519;28;1007;-75
2022/02/13 00:33:17;;;;;;;;;;;;;;;;;;348590;28;890;-75
2022/02/13 00:33:27;;;;;;;;;;;;;;;;;;348577;28;912;-75
2022/02/13 00:33:37;;;;;;;;;;;;;;;;;;348600;28;833;-75
2022/02/13 00:33:47;;;;;;;;;;;;;;;;;;348550;28;953;-75
2022/02/13 00:33:58;;;;;;;;;;;;;;;;;;348514;28;924;-75
2022/02/13 00:34:08;;;;;;;;;;;;;;;;;;348580;28;877;-75
2022/02/13 00:34:18;;;;;;;;;;;;;;;;;;348544;28;1055;-75
2022/02/13 00:34:28;;;;;;;;;;;;;;;;;;348578;28;814;-75
2022/02/13 00:34:39;;;;;;;;;;;;;;;;;;348560;28;900;-75
2022/02/13 00:34:49;;;;;;;;;;;;;;;;;;348496;28;921;-75
2022/02/13 00:34:59;;;;;;;;;;;;;;;;;;348569;28;964;-75
2022/02/13 00:35:13;;;;;;;;;;;;;;;;;;348511;28;971;-75
2022/02/13 00:35:23;;;;;;;;;;;;;;;;;;348553;28;980;-75
2022/02/13 00:35:33;;;;;;;;;;;;;;;;;;349467;28;1720;-75
2022/02/13 00:35:45;;;;;;;;;;;;;;;;;;349919;28;917;-75
2022/02/13 00:35:56;;;;;;;;;;;;;;;;;;350142;28;1806;-75
2022/02/13 00:36:06;;;;;;;;;;;;;;;;;;350345;28;1463;-76
2022/02/13 00:36:17;;;;;;;;;;;;;;;;;;351295;28;947;-75
2022/02/13 00:36:27;;;;;;;;;;;;;;;;;;351356;28;967;-75
2022/02/13 00:36:37;;;;;;;;;;;;;;;;;;351298;28;959;-75
2022/02/13 00:36:47;;;;;;;;;;;;;;;;;;351274;28;905;-75
2022/02/13 00:36:58;;;;;;;;;;;;;;;;;;351308;28;837;-75
2022/02/13 00:37:08;;;;;;;;;;;;;;;;;;351360;28;802;-75
2022/02/13 00:37:19;;;;;;;;;;;;;;;;;;351297;28;991;-75
2022/02/13 00:37:29;;;;;;;;;;;;;;;;;;350454;28;1547;-75
2022/02/13 00:37:39;;;;;;;;;;;;;;;;;;351016;28;1551;-75
2022/02/13 00:37:49;;;;;;;;;;;;;;;;;;351089;28;1566;-75
2022/02/13 00:37:59;;;;;;;;;;;;;;;;;;351332;28;916;-75
2022/02/13 00:38:10;;;;;;;;;;;;;;;;;;351350;28;920;-75
2022/02/13 00:38:20;;;;;;;;;;;;;;;;;;351328;28;782;-75
2022/02/13 00:38:30;;;;;;;;;;;;;;;;;;351385;28;913;-76
2022/02/13 00:38:40;;;;;;;;;;;;;;;;;;351329;28;997;-75
2022/02/13 00:38:50;;;;;;;;;;;;;;;;;;351242;28;972;-75
2022/02/13 00:39:01;;;;;;;;;;;;;;;;;;351289;28;1024;-75
2022/02/13 00:39:11;;;;;;;;;;;;;;;;;;351359;28;935;-75
2022/02/13 00:39:21;;;;;;;;;;;;;;;;;;351297;28;1003;-75
2022/02/13 00:39:32;;;;;;;;;;;;;;;;;;351356;28;912;-75
2022/02/13 00:39:42;;;;;;;;;;;;;;;;;;351354;28;901;-75
2022/02/13 00:39:52;;;;;;;;;;;;;;;;;;351336;28;845;-75
2022/02/13 00:40:03;;;;;;;;;;;;;;;;;;351317;28;925;-75
2022/02/13 00:40:13;;;;;;;;;;;;;;;;;;351223;28;822;-75
2022/02/13 00:40:23;;;;;;;;;;;;;;;;;;351202;28;933;-76
2022/02/13 00:40:34;;;;;;;;;;;;;;;;;;351282;28;949;-75
2022/02/13 00:40:44;;;;;;;;;;;;;;;;;;351256;28;980;-76
2022/02/13 00:40:54;;;;;;;;;;;;;;;;;;351092;28;1976;-75
2022/02/13 00:41:04;;;;;;;;;;;;;;;;;;351222;28;1026;-75
2022/02/13 00:41:14;;;;;;;;;;;;;;;;;;351262;28;856;-75
2022/02/13 00:41:25;;;;;;;;;;;;;;;;;;351170;28;964;-75
2022/02/13 00:41:35;;;;;;;;;;;;;;;;;;351279;28;920;-75
2022/02/13 00:41:45;;;;;;;;;;;;;;;;;;351234;28;1015;-75
2022/02/13 00:41:56;;;;;;;;;;;;;;;;;;351003;28;1806;-75
2022/02/13 00:42:06;;;;;;;;;;;;;;;;;;348409;28;1652;-76
2022/02/13 00:42:16;;;;;;;;;;;;;;;;;;348556;28;837;-76
2022/02/13 00:42:27;;;;;;;;;;;;;;;;;;348527;28;973;-75
2022/02/13 00:42:37;;;;;;;;;;;;;;;;;;348585;28;972;-75
2022/02/13 00:42:48;;;;;;;;;;;;;;;;;;348607;28;882;-75
2022/02/13 00:42:58;;;;;;;;;;;;;;;;;;348446;28;961;-75
2022/02/13 00:43:08;;;;;;;;;;;;;;;;;;348590;28;759;-75
2022/02/13 00:43:18;;;;;;;;;;;;;;;;;;348576;28;849;-75
2022/02/13 00:43:29;;;;;;;;;;;;;;;;;;348533;28;1057;-75
2022/02/13 00:43:39;;;;;;;;;;;;;;;;;;348603;28;834;-75
2022/02/13 00:43:49;;;;;;;;;;;;;;;;;;348599;28;961;-75
2022/02/13 00:44:00;;;;;;;;;;;;;;;;;;348510;28;953;-75
2022/02/13 00:44:11;;;;;;;;;;;;;;;;;;348602;28;889;-75
2022/02/13 00:44:21;;;;;;;;;;;;;;;;;;348502;28;1052;-75
2022/02/13 00:44:31;;;;;;;;;;;;;;;;;;348559;28;898;-75
2022/02/13 00:44:42;;;;;;;;;;;;;;;;;;348573;28;917;-75
2022/02/13 00:44:52;;;;;;;;;;;;;;;;;;348586;28;952;-75
2022/02/13 00:45:03;;;;;;;;;;;;;;;;;;348460;28;940;-75
2022/02/13 00:45:14;;;;;;;;;;;;;;;;;;348534;28;834;-75
2022/02/13 00:45:24;;;;;;;;;;;;;;;;;;348585;28;901;-75
2022/02/13 00:45:35;;;;;;;;;;;;;;;;;;348497;28;834;-75
2022/02/13 00:45:45;;;;;;;;;;;;;;;;;;348577;28;913;-75
2022/02/13 00:45:55;;;;;;;;;;;;;;;;;;348595;28;980;-75
2022/02/13 00:46:05;;;;;;;;;;;;;;;;;;348561;28;793;-75
2022/02/13 00:46:15;;;;;;;;;;;;;;;;;;348530;28;913;-76
2022/02/13 00:46:26;;;;;;;;;;;;;;;;;;348536;28;969;-75
2022/02/13 00:46:36;;;;;;;;;;;;;;;;;;348541;28;917;-75
2022/02/13 00:46:46;;;;;;;;;;;;;;;;;;348568;28;1032;-75
2022/02/13 00:46:57;;;;;;;;;;;;;;;;;;348496;28;1040;-75
2022/02/13 00:47:08;;;;;;;;;;;;;;;;;;348472;28;922;-75
2022/02/13 00:47:18;;;;;;;;;;;;;;;;;;348570;28;991;-75
2022/02/13 00:47:28;;;;;;;;;;;;;;;;;;348612;28;842;-75
2022/02/13 00:47:38;;;;;;;;;;;;;;;;;;348545;28;924;-75
2022/02/13 00:47:49;;;;;;;;;;;;;;;;;;348581;28;833;-75
2022/02/13 00:47:59;;;;;;;;;;;;;;;;;;348581;28;885;-75
2022/02/13 00:48:10;;;;;;;;;;;;;;;;;;348500;28;1039;-75
2022/02/13 00:48:20;;;;;;;;;;;;;;;;;;348535;28;937;-75
2022/02/13 00:48:30;;;;;;;;;;;;;;;;;;348580;28;1794;-75
2022/02/13 00:48:41;;;;;;;;;;;;;;;;;;348590;28;775;-75
2022/02/13 00:48:51;;;;;;;;;;;;;;;;;;348587;28;973;-75
2022/02/13 00:49:01;;;;;;;;;;;;;;;;;;348486;28;1174;-75
2022/02/13 00:49:12;;;;;;;;;;;;;;;;;;348530;28;849;-75
2022/02/13 00:49:22;;;;;;;;;;;;;;;;;;348580;28;1644;-75
2022/02/13 00:49:32;;;;;;;;;;;;;;;;;;348595;28;917;-75
2022/02/13 00:49:43;;;;;;;;;;;;;;;;;;348524;28;995;-75
2022/02/13 00:49:53;;;;;;;;;;;;;;;;;;348528;28;1056;-75
2022/02/13 00:50:03;;;;;;;;;;;;;;;;;;348568;28;929;-75
2022/02/13 00:50:14;;;;;;;;;;;;;;;;;;348512;28;917;-75
2022/02/13 00:50:24;;;;;;;;;;;;;;;;;;348506;28;787;-75
2022/02/13 00:50:34;;;;;;;;;;;;;;;;;;348583;28;842;-75
2022/02/13 00:50:45;;;;;;;;;;;;;;;;;;348591;28;861;-75
2022/02/13 00:50:56;;;;;;;;;;;;;;;;;;348539;28;921;-75
2022/02/13 00:51:06;;;;;;;;;;;;;;;;;;348579;28;826;-75
2022/02/13 00:51:16;;;;;;;;;;;;;;;;;;348397;28;964;-75
2022/02/13 00:51:26;;;;;;;;;;;;;;;;;;348547;28;968;-75
2022/02/13 00:51:37;;;;;;;;;;;;;;;;;;348595;28;925;-75
2022/02/13 00:51:48;;;;;;;;;;;;;;;;;;348550;28;916;-75
2022/02/13 00:51:59;;;;;;;;;;;;;;;;;;348595;28;925;-75
2022/02/13 00:52:09;;;;;;;;;;;;;;;;;;348493;28;913;-75
2022/02/13 00:52:19;;;;;;;;;;;;;;;;;;348781;28;1647;-75
2022/02/13 00:52:32;;;;;;;;;;;;;;;;;;348555;28;905;-75
2022/02/13 00:52:42;;;;;;;;;;;;;;;;;;348752;28;1692;-75
2022/02/13 00:52:53;;;;;;;;;;;;;;;;;;350158;28;1566;-75
2022/02/13 00:53:05;;;;;;;;;;;;;;;;;;351145;28;1566;-75
2022/02/13 00:53:15;;;;;;;;;;;;;;;;;;351303;28;960;-76
2022/02/13 00:53:25;;;;;;;;;;;;;;;;;;351255;28;987;-75
2022/02/13 00:53:35;;;;;;;;;;;;;;;;;;351328;28;948;-75
2022/02/13 00:53:46;;;;;;;;;;;;;;;;;;351351;28;869;-75
2022/02/13 00:53:56;;;;;;;;;;;;;;;;;;351282;28;971;-75
2022/02/13 00:54:07;;;;;;;;;;;;;;;;;;351322;28;952;-75
2022/02/13 00:54:17;;;;;;;;;;;;;;;;;;351292;28;814;-75
2022/02/13 00:54:27;;;;;;;;;;;;;;;;;;351347;28;865;-75
2022/02/13 00:54:38;;;;;;;;;;;;;;;;;;351375;28;920;-75
2022/02/13 00:54:49;;;;;;;;;;;;;;;;;;351294;28;996;-75
2022/02/13 00:54:59;;;;;;;;;;;;;;;;;;351369;28;826;-75
2022/02/13 00:55:09;;;;;;;;;;;;;;;;;;351355;28;796;-75
2022/02/13 00:55:20;;;;;;;;;;;;;;;;;;351323;28;999;-75
2022/02/13 00:55:30;;;;;;;;;;;;;;;;;;351261;28;985;-75
2022/02/13 00:55:40;;;;;;;;;;;;;;;;;;351286;28;897;-75
2022/02/13 00:55:50;;;;;;;;;;;;;;;;;;351325;28;961;-75
2022/02/13 00:56:00;;;;;;;;;;;;;;;;;;351343;28;936;-75
2022/02/13 00:56:11;;;;;;;;;;;;;;;;;;351364;28;782;-75
2022/02/13 00:56:21;;;;;;;;;;;;;;;;;;351266;28;984;-75
2022/02/13 00:56:31;;;;;;;;;;;;;;;;;;351365;28;782;-75
2022/02/13 00:56:41;;;;;;;;;;;;;;;;;;351337;28;963;-75
2022/02/13 00:56:52;;;;;;;;;;;;;;;;;;351346;28;905;-75
2022/02/13 00:57:02;;;;;;;;;;;;;;;;;;351307;28;909;-75
2022/02/13 00:57:12;;;;;;;;;;;;;;;;;;351344;28;920;-75
2022/02/13 00:57:23;;;;;;;;;;;;;;;;;;351284;28;1027;-75
2022/02/13 00:57:33;;;;;;;;;;;;;;;;;;351262;28;909;-75
2022/02/13 00:57:43;;;;;;;;;;;;;;;;;;351220;28;1014;-75
2022/02/13 00:57:53;;;;;;;;;;;;;;;;;;351334;28;896;-75
2022/02/13 00:58:04;;;;;;;;;;;;;;;;;;351152;28;1136;-75
2022/02/13 00:58:14;;;;;;;;;;;;;;;;;;351299;28;1140;-75
2022/02/13 00:58:25;;;;;;;;;;;;;;;;;;351226;28;1198;-75
2022/02/13 00:58:35;;;;;;;;;;;;;;;;;;351316;28;1030;-75
2022/02/13 00:58:46;;;;;;;;;;;;;;;;;;351217;28;1687;-76
2022/02/13 00:58:56;;;;;;;;;;;;;;;;;;349427;28;1690;-75
2022/02/13 00:59:06;;;;;;;;;;;;;;;;;;349947;28;778;-75
2022/02/13 00:59:16;;;;;;;;;;;;;;;;;;349940;28;821;-75
2022/02/13 00:59:27;;;;;;;;;;;;;;;;;;349875;28;980;-75
2022/02/13 00:59:37;;;;;;;;;;;;;;;;;;349842;28;933;-75
2022/02/13 00:59:48;;;;;;;;;;;;;;;;;;349891;28;1183;-75
2022/02/13 00:59:58;;;;;;;;;;;;;;;;;;349922;28;976;-75
2022/02/13 01:00:08;;;;;;;;;;;;;;;;;;349985;28;961;-75
2022/02/13 01:00:19;;;;;;;;;;;;;;;;;;349838;28;1703;-75
2022/02/13 01:00:29;;;;;;;;;;;;;;;;;;349938;28;881;-75
2022/02/13 01:00:39;;;;;;;;;;;;;;;;;;349953;28;980;-75
2022/02/13 01:00:49;;;;;;;;;;;;;;;;;;349975;28;893;-75
2022/02/13 01:00:59;;;;;;;;;;;;;;;;;;349795;28;1905;-75
2022/02/13 01:01:10;;;;;;;;;;;;;;;;;;349927;28;920;-75
2022/02/13 01:01:20;;;;;;;;;;;;;;;;;;349860;28;1062;-75
2022/02/13 01:01:30;;;;;;;;;;;;;;;;;;349958;28;940;-75
2022/02/13 01:01:41;;;;;;;;;;;;;;;;;;349810;28;1051;-75
2022/02/13 01:01:51;;;;;;;;;;;;;;;;;;349946;28;913;-75
2022/02/13 01:02:01;;;;;;;;;;;;;;;;;;349958;28;846;-75
2022/02/13 01:02:11;;;;;;;;;;;;;;;;;;349943;28;980;-75
2022/02/13 01:02:22;;;;;;;;;;;;;;;;;;349905;28;924;-75
2022/02/13 01:02:32;;;;;;;;;;;;;;;;;;349923;28;928;-75
2022/02/13 01:02:42;;;;;;;;;;;;;;;;;;349956;28;941;-75
2022/02/13 01:02:52;;;;;;;;;;;;;;;;;;349949;28;912;-75
2022/02/13 01:03:02;;;;;;;;;;;;;;;;;;349941;28;783;-75
2022/02/13 01:03:13;;;;;;;;;;;;;;;;;;349924;28;995;-75
2022/02/13 01:03:23;;;;;;;;;;;;;;;;;;349838;28;996;-75
2022/02/13 01:03:33;;;;;;;;;;;;;;;;;;349925;28;1074;-75
2022/02/13 01:03:44;;;;;;;;;;;;;;;;;;349809;28;1008;-75
2022/02/13 01:03:54;;;;;;;;;;;;;;;;;;349947;28;1092;-75
2022/02/13 01:04:04;;;;;;;;;;;;;;;;;;349901;28;913;-75
2022/02/13 01:04:15;;;;;;;;;;;;;;;;;;349962;28;975;-75
2022/02/13 01:04:25;;;;;;;;;;;;;;;;;;349969;28;1739;-75
2022/02/13 01:04:35;;;;;;;;;;;;;;;;;;349971;28;971;-75
2022/02/13 01:04:45;;;;;;;;;;;;;;;;;;349888;28;1193;-75
2022/02/13 01:04:55;;;;;;;;;;;;;;;;;;349917;28;865;-75
2022/02/13 01:05:06;;;;;;;;;;;;;;;;;;349910;28;778;-75
2022/02/13 01:05:17;;;;;;;;;;;;;;;;;;349942;28;1015;-75
2022/02/13 01:05:28;;;;;;;;;;;;;;;;;;350182;28;924;-75
2022/02/13 01:05:38;;;;;;;;;;;;;;;;;;350111;28;771;-75
2022/02/13 01:05:48;;;;;;;;;;;;;;;;;;350174;28;904;-75
2022/02/13 01:06:00;;;;;;;;;;;;;;;;;;350191;28;782;-75
2022/02/13 01:06:10;;;;;;;;;;;;;;;;;;350219;28;995;-76
2022/02/13 01:06:21;;;;;;;;;;;;;;;;;;350146;28;941;-75
2022/02/13 01:06:31;;;;;;;;;;;;;;;;;;350220;28;908;-75
2022/02/13 01:06:41;;;;;;;;;;;;;;;;;;350173;28;1048;-75
2022/02/13 01:06:51;;;;;;;;;;;;;;;;;;350160;28;778;-75
2022/02/13 01:07:02;;;;;;;;;;;;;;;;;;350167;28;917;-75
2022/02/13 01:07:12;;;;;;;;;;;;;;;;;;350207;28;844;-75
2022/02/13 01:07:22;;;;;;;;;;;;;;;;;;350215;28;965;-75
2022/02/13 01:07:32;;;;;;;;;;;;;;;;;;349795;28;1438;-75
2022/02/13 01:07:43;;;;;;;;;;;;;;;;;;350115;28;837;-74
2022/02/13 01:07:53;;;;;;;;;;;;;;;;;;350168;28;909;-75
2022/02/13 01:08:04;;;;;;;;;;;;;;;;;;350181;28;1007;-75
2022/02/13 01:08:14;;;;;;;;;;;;;;;;;;350218;28;1075;-75
2022/02/13 01:08:24;;;;;;;;;;;;;;;;;;350158;28;965;-74
2022/02/13 01:08:34;;;;;;;;;;;;;;;;;;350184;28;948;-75
2022/02/13 01:08:44;;;;;;;;;;;;;;;;;;350224;28;929;-75
2022/02/13 01:08:55;;;;;;;;;;;;;;;;;;350183;28;972;-75
2022/02/13 01:09:05;;;;;;;;;;;;;;;;;;350158;28;873;-75
2022/02/13 01:09:15;;;;;;;;;;;;;;;;;;350212;28;953;-75
2022/02/13 01:09:27;;;;;;;;;;;;;;;;;;350192;28;936;-75
2022/02/13 01:09:37;;;;;;;;;;;;;;;;;;350186;28;921;-75
2022/02/13 01:09:48;;;;;;;;;;;;;;;;;;350273;28;924;-75
2022/02/13 01:09:58;;;;;;;;;;;;;;;;;;350141;28;1027;-75
2022/02/13 01:10:08;;;;;;;;;;;;;;;;;;350180;28;925;-75
2022/02/13 01:10:18;;;;;;;;;;;;;;;;;;350167;28;1020;-75
2022/02/13 01:10:31;;;;;;;;;;;;;;;;;;350181;28;964;-75
2022/02/13 01:10:41;;;;;;;;;;;;;;;;;;350190;28;933;-75
2022/02/13 01:10:51;;;;;;;;;;;;;;;;;;350176;28;1063;-75
2022/02/13 01:11:02;;;;;;;;;;;;;;;;;;350177;28;998;-75
2022/02/13 01:11:12;;;;;;;;;;;;;;;;;;350205;28;916;-75
2022/02/13 01:11:23;;;;;;;;;;;;;;;;;;350217;28;980;-76
2022/02/13 01:11:33;;;;;;;;;;;;;;;;;;350186;28;853;-76
2022/02/13 01:11:43;;;;;;;;;;;;;;;;;;350117;28;956;-74
2022/02/13 01:11:53;;;;;;;;;;;;;;;;;;350206;28;913;-75
2022/02/13 01:12:04;;;;;;;;;;;;;;;;;;350214;28;841;-75
2022/02/13 01:12:14;;;;;;;;;;;;;;;;;;350126;28;1042;-75
2022/02/13 01:12:24;;;;;;;;;;;;;;;;;;350162;28;905;-75
2022/02/13 01:12:35;;;;;;;;;;;;;;;;;;350192;28;928;-75
2022/02/13 01:12:45;;;;;;;;;;;;;;;;;;350200;28;937;-75
2022/02/13 01:12:55;;;;;;;;;;;;;;;;;;350237;28;889;-75
2022/02/13 01:13:05;;;;;;;;;;;;;;;;;;350130;28;974;-75
2022/02/13 01:13:16;;;;;;;;;;;;;;;;;;350113;28;1013;-75
2022/02/13 01:13:28;;;;;;;;;;;;;;;;;;350171;28;944;-75
2022/02/13 01:13:38;;;;;;;;;;;;;;;;;;350119;28;1662;-75
2022/02/13 01:13:48;;;;;;;;;;;;;;;;;;350167;28;981;-75
2022/02/13 01:13:59;;;;;;;;;;;;;;;;;;350196;28;928;-75
2022/02/13 01:14:09;;;;;;;;;;;;;;;;;;350147;28;838;-75
2022/02/13 01:14:19;;;;;;;;;;;;;;;;;;350239;28;976;-75
2022/02/13 01:14:29;;;;;;;;;;;;;;;;;;350157;28;865;-75
2022/02/13 01:14:40;;;;;;;;;;;;;;;;;;350182;28;853;-75
2022/02/13 01:14:50;;;;;;;;;;;;;;;;;;350178;28;960;-75